createdAt,value
2018-12-27T00:01:27.351Z,102631.88
2018-12-27T00:04:00.790Z,102625.17
2018-12-27T00:06:34.403Z,102618.47
2018-12-27T00:09:22.692Z,102618.47
2018-12-27T00:12:01.263Z,102616.76
2018-12-27T00:14:49.016Z,102631.08
2018-12-27T00:17:35.520Z,102620.88
2018-12-27T00:24:34.983Z,102619.08
2018-12-27T00:26:55.751Z,102612.78
2018-12-27T00:29:26.522Z,102612.05
2018-12-27T00:32:25.592Z,102610.72
2018-12-27T00:34:48.143Z,102604.02
2018-12-27T00:37:28.581Z,102595.63
2018-12-27T00:40:16.392Z,102583.63
2018-12-27T00:42:48.106Z,102587.59
2018-12-27T00:45:25.269Z,102579.97
2018-12-27T00:48:57.862Z,102579.97
2018-12-27T00:52:15.802Z,102573.78
2018-12-27T00:55:50.419Z,102578.70
2018-12-27T01:02:50.951Z,102575.66
2018-12-27T01:10:05.777Z,102572.45
2018-12-27T01:20:15.504Z,102565.94
2018-12-27T01:59:31.716Z,102524.91
2018-12-27T02:20:53.292Z,102526.30
2018-12-27T02:23:29.555Z,102517.63
2018-12-27T02:26:40.874Z,102515.13
2018-12-27T02:29:37.963Z,102508.08
2018-12-27T02:32:12.054Z,102506.88
2018-12-27T02:34:45.542Z,102506.55
2018-12-27T02:37:24.379Z,102506.20
2018-12-27T02:39:58.372Z,102505.50
2018-12-27T02:42:31.826Z,102503.50
2018-12-27T02:45:06.357Z,102497.50
2018-12-27T02:47:45.119Z,102504.64
2018-12-27T02:53:15.208Z,102494.75
2018-12-27T02:55:48.880Z,102493.55
2018-12-27T02:58:25.160Z,102491.51
2018-12-27T03:01:11.072Z,102487.23
2018-12-27T03:03:56.447Z,102485.67
2018-12-27T03:06:32.227Z,102489.48
2018-12-27T03:09:06.291Z,102486.14
2018-12-27T03:12:07.970Z,102486.23
2018-12-27T03:14:57.448Z,102482.98
2018-12-27T03:17:35.329Z,102479.61
2018-12-27T03:20:07.614Z,102481.19
2018-12-27T03:22:41.935Z,102481.97
2018-12-27T03:25:15.996Z,102479.77
2018-12-27T03:28:03.834Z,102478.84
2018-12-27T03:30:37.529Z,102481.11
2018-12-27T03:33:11.491Z,102480.91
2018-12-27T03:35:46.100Z,102478.41
2018-12-27T03:38:20.566Z,102475.04
2018-12-27T03:40:55.495Z,102471.35
2018-12-27T03:43:30.138Z,102473.20
2018-12-27T03:46:03.927Z,102477.07
2018-12-27T03:48:38.307Z,102464.42
2018-12-27T03:51:23.086Z,102467.09
2018-12-27T03:54:09.025Z,102463.92
2018-12-27T03:56:43.557Z,102466.42
2018-12-27T03:59:16.920Z,102469.40
2018-12-27T04:01:50.697Z,102457.13
2018-12-27T04:04:31.244Z,102460.23
2018-12-27T04:07:20.532Z,102456.47
2018-12-27T04:09:57.835Z,102454.47
2018-12-27T04:12:37.184Z,102453.42
2018-12-27T04:15:23.264Z,102458.16
2018-12-27T04:17:58.026Z,102450.08
2018-12-27T04:20:31.981Z,102458.55
2018-12-27T04:23:06.040Z,102456.05
2018-12-27T04:25:39.503Z,102456.90
2018-12-27T04:28:12.673Z,102452.40
2018-12-27T04:30:48.966Z,102454.08
2018-12-27T04:33:22.982Z,102447.07
2018-12-27T04:35:58.064Z,102450.44
2018-12-27T04:38:32.570Z,102453.37
2018-12-27T04:41:18.327Z,102450.80
2018-12-27T04:43:54.155Z,102447.45
2018-12-27T04:46:27.558Z,102450.44
2018-12-27T04:49:13.498Z,102445.27
2018-12-27T04:51:47.853Z,102444.76
2018-12-27T04:54:21.502Z,102442.73
2018-12-27T04:56:55.521Z,102442.77
2018-12-27T04:59:40.656Z,102434.49
2018-12-27T05:02:25.052Z,102434.81
2018-12-27T05:04:59.138Z,102432.30
2018-12-27T05:07:48.632Z,102433.35
2018-12-27T05:10:22.908Z,102438.48
2018-12-27T05:13:07.691Z,102430.34
2018-12-27T05:15:42.097Z,102434.81
2018-12-27T05:18:16.266Z,102430.81
2018-12-27T05:20:49.604Z,102429.45
2018-12-27T05:23:23.553Z,102431.48
2018-12-27T05:25:57.725Z,102427.48
2018-12-27T05:28:49.173Z,102431.64
2018-12-27T05:31:22.602Z,102434.58
2018-12-27T05:33:55.914Z,102435.12
2018-12-27T05:36:29.216Z,102438.92
2018-12-27T05:39:03.036Z,102444.41
2018-12-27T05:41:36.478Z,102440.77
2018-12-27T05:44:11.042Z,102445.78
2018-12-27T05:46:56.282Z,102443.89
2018-12-27T05:49:41.454Z,102445.86
2018-12-27T05:52:21.008Z,102446.13
2018-12-27T05:54:54.655Z,102445.59
2018-12-27T05:57:27.947Z,102447.45
2018-12-27T06:00:02.166Z,102449.46
2018-12-27T06:02:36.520Z,102441.78
2018-12-27T06:05:09.454Z,102447.42
2018-12-27T06:07:46.005Z,102442.45
2018-12-27T06:10:19.214Z,102446.91
2018-12-27T06:12:52.393Z,102443.42
2018-12-27T06:15:37.710Z,102448.44
2018-12-27T06:18:29.333Z,102449.46
2018-12-27T06:21:02.700Z,102448.44
2018-12-27T06:23:48.852Z,102446.61
2018-12-27T06:26:23.013Z,102448.20
2018-12-27T06:28:57.092Z,102445.39
2018-12-27T06:31:48.311Z,102442.73
2018-12-27T06:34:33.490Z,102445.42
2018-12-27T06:37:09.117Z,102442.45
2018-12-27T06:39:43.546Z,102446.56
2018-12-27T06:42:20.766Z,102444.29
2018-12-27T06:44:55.357Z,102444.09
2018-12-27T06:47:29.913Z,102445.42
2018-12-27T06:50:03.873Z,102443.42
2018-12-27T06:52:51.788Z,102436.30
2018-12-27T06:55:27.293Z,102436.11
2018-12-27T06:58:02.934Z,102437.24
2018-12-27T07:00:47.187Z,102436.11
2018-12-27T07:03:22.510Z,102441.34
2018-12-27T07:05:55.952Z,102445.15
2018-12-27T07:08:28.335Z,102440.02
2018-12-27T07:11:03.270Z,102439.86
2018-12-27T07:13:37.834Z,102446.05
2018-12-27T07:16:32.104Z,102440.78
2018-12-27T07:19:05.869Z,102433.27
2018-12-27T07:21:40.531Z,102442.25
2018-12-27T07:24:14.213Z,102440.91
2018-12-27T07:26:47.533Z,102446.78
2018-12-27T07:29:22.370Z,102440.72
2018-12-27T07:32:27.291Z,102443.92
2018-12-27T07:35:01.501Z,102437.55
2018-12-27T07:37:36.647Z,102433.23
2018-12-27T07:40:10.351Z,102440.91
2018-12-27T07:42:46.252Z,102437.62
2018-12-27T07:45:19.629Z,102436.09
2018-12-27T07:47:53.596Z,102436.09
2018-12-27T07:50:28.822Z,102432.60
2018-12-27T07:53:04.106Z,102435.58
2018-12-27T07:55:36.763Z,102434.25
2018-12-27T07:58:10.001Z,102435.78
2018-12-27T08:01:04.499Z,102428.80
2018-12-27T08:03:39.211Z,102434.64
2018-12-27T08:06:31.358Z,102427.69
2018-12-27T08:09:08.767Z,102427.47
2018-12-27T08:11:53.249Z,102431.34
2018-12-27T08:14:28.191Z,102429.97
2018-12-27T08:17:01.301Z,102424.45
2018-12-27T08:19:39.966Z,102420.52
2018-12-27T08:22:20.654Z,102423.03
2018-12-27T08:24:59.462Z,102419.70
2018-12-27T08:27:35.973Z,102419.34
2018-12-27T08:30:11.471Z,102422.33
2018-12-27T08:32:45.654Z,102424.05
2018-12-27T08:35:19.939Z,102423.53
2018-12-27T08:37:52.323Z,102418.72
2018-12-27T08:40:26.796Z,102417.23
2018-12-27T08:43:05.063Z,102429.06
2018-12-27T08:45:50.798Z,102417.70
2018-12-27T08:48:44.807Z,102424.55
2018-12-27T08:51:30.660Z,102422.27
2018-12-27T08:54:10.501Z,102418.37
2018-12-27T08:57:01.627Z,102421.12
2018-12-27T08:59:50.247Z,102409.67
2018-12-27T09:02:44.651Z,102415.45
2018-12-27T09:05:20.001Z,102413.55
2018-12-27T09:07:56.988Z,102416.40
2018-12-27T09:10:32.596Z,102413.13
2018-12-27T09:13:08.084Z,102411.77
2018-12-27T09:15:59.242Z,102417.16
2018-12-27T09:18:32.420Z,102409.89
2018-12-27T09:21:05.591Z,102420.14
2018-12-27T09:23:40.472Z,102422.78
2018-12-27T09:26:14.225Z,102428.11
2018-12-27T09:28:49.077Z,102419.77
2018-12-27T09:31:23.743Z,102415.12
2018-12-27T09:33:57.155Z,102423.63
2018-12-27T09:36:31.761Z,102420.46
2018-12-27T09:39:06.025Z,102425.63
2018-12-27T09:41:39.271Z,102430.45
2018-12-27T09:44:13.211Z,102424.65
2018-12-27T09:47:09.456Z,102417.70
2018-12-27T09:49:42.653Z,102423.70
2018-12-27T09:52:14.657Z,102421.34
2018-12-27T09:55:03.799Z,102417.51
2018-12-27T09:57:52.928Z,102413.16
2018-12-27T10:00:27.019Z,102411.39
2018-12-27T10:03:00.668Z,102408.56
2018-12-27T10:05:34.265Z,102405.57
2018-12-27T10:08:07.902Z,102403.09
2018-12-27T10:10:41.822Z,102393.26
2018-12-27T10:13:16.406Z,102406.27
2018-12-27T10:15:52.063Z,102404.94
2018-12-27T10:18:25.635Z,102405.63
2018-12-27T10:21:18.973Z,102392.33
2018-12-27T10:23:52.537Z,102390.46
2018-12-27T10:26:25.918Z,102388.63
2018-12-27T10:28:59.267Z,102389.27
2018-12-27T10:31:32.853Z,102386.59
2018-12-27T10:34:06.779Z,102382.78
2018-12-27T10:36:41.547Z,102382.30
2018-12-27T10:39:15.153Z,102371.27
2018-12-27T10:41:49.618Z,102372.41
2018-12-27T10:44:22.482Z,102373.30
2018-12-27T10:46:56.023Z,102373.94
2018-12-27T10:49:28.182Z,102374.62
2018-12-27T10:52:02.173Z,102369.00
2018-12-27T10:54:48.070Z,102360.09
2018-12-27T10:57:34.887Z,102357.73
2018-12-27T11:00:10.260Z,102359.37
2018-12-27T11:02:44.156Z,102361.38
2018-12-27T11:05:18.429Z,102350.75
2018-12-27T11:08:12.953Z,102356.11
2018-12-27T11:10:58.577Z,102354.98
2018-12-27T11:13:49.339Z,102362.36
2018-12-27T11:16:22.664Z,102362.84
2018-12-27T11:18:55.835Z,102360.86
2018-12-27T11:21:55.318Z,102361.23
2018-12-27T11:24:40.416Z,102360.53
2018-12-27T11:27:14.064Z,102357.70
2018-12-27T11:29:47.689Z,102367.88
2018-12-27T11:32:21.122Z,102364.68
2018-12-27T11:34:54.473Z,102367.33
2018-12-27T11:37:28.556Z,102360.19
2018-12-27T11:40:14.087Z,102362.55
2018-12-27T11:42:59.093Z,102360.90
2018-12-27T11:45:32.917Z,102359.03
2018-12-27T11:48:25.526Z,102360.90
2018-12-27T11:50:58.747Z,102358.20
2018-12-27T11:53:32.740Z,102367.90
2018-12-27T11:56:06.026Z,102364.39
2018-12-27T11:58:40.894Z,102362.56
2018-12-27T12:01:39.224Z,102356.38
2018-12-27T12:04:32.052Z,102348.87
2018-12-27T12:07:16.616Z,102354.38
2018-12-27T12:09:51.556Z,102349.52
2018-12-27T12:12:26.326Z,102353.22
2018-12-27T12:15:25.435Z,102352.89
2018-12-27T12:17:58.636Z,102351.23
2018-12-27T12:20:32.469Z,102354.77
2018-12-27T12:45:02.533Z,102348.61
2018-12-27T12:47:36.501Z,102349.95
2018-12-27T12:50:10.458Z,102349.11
2018-12-27T12:52:45.251Z,102350.27
2018-12-27T12:55:19.013Z,102347.28
2018-12-27T12:57:52.399Z,102343.28
2018-12-27T13:00:26.574Z,102346.60
2018-12-27T13:03:00.461Z,102344.10
2018-12-27T13:16:20.638Z,102342.42
2018-12-27T13:18:58.118Z,102338.91
2018-12-27T13:21:55.859Z,102333.95
2018-12-27T13:24:49.617Z,102331.63
2018-12-27T13:27:37.403Z,102338.59
2018-12-27T13:30:22.745Z,102338.25
2018-12-27T13:33:28.593Z,102333.27
2018-12-27T13:36:07.923Z,102331.47
2018-12-27T13:38:49.464Z,102330.94
2018-12-27T13:41:30.889Z,102334.95
2018-12-27T13:44:09.092Z,102318.11
2018-12-27T13:46:48.305Z,102326.94
2018-12-27T13:49:27.628Z,102328.61
2018-12-27T13:52:05.411Z,102330.43
2018-12-27T13:55:11.624Z,102324.95
2018-12-27T13:57:45.671Z,102326.30
2018-12-27T14:00:19.074Z,102317.25
2018-12-27T14:02:54.739Z,102319.27
2018-12-27T14:05:40.857Z,102320.73
2018-12-27T14:08:18.814Z,102326.92
2018-12-27T14:14:47.827Z,102320.60
2018-12-27T14:17:22.360Z,102324.90
2018-12-27T14:20:31.057Z,102325.27
2018-12-27T14:23:19.394Z,102329.96
2018-12-27T14:25:57.245Z,102327.10
2018-12-27T14:29:02.682Z,102334.30
2018-12-27T14:36:19.746Z,102332.92
2018-12-27T14:40:03.663Z,102330.92
2018-12-27T14:45:15.262Z,102324.91
2018-12-27T14:47:55.714Z,102322.58
2018-12-27T14:54:19.804Z,102326.41
2018-12-27T14:57:34.401Z,102324.27
2018-12-27T15:00:16.471Z,102325.89
2018-12-27T15:02:51.647Z,102327.05
2018-12-27T15:05:28.579Z,102316.23
2018-12-27T15:08:01.907Z,102319.56
2018-12-27T15:10:35.507Z,102328.08
2018-12-27T15:13:10.476Z,102334.41
2018-12-27T15:15:55.080Z,102326.40
2018-12-27T15:18:27.175Z,102326.40
2018-12-27T15:21:01.502Z,102317.03
2018-12-27T15:23:35.153Z,102322.20
2018-12-27T15:26:20.919Z,102318.55
2018-12-27T15:28:57.625Z,102323.36
2018-12-27T15:31:43.964Z,102322.56
2018-12-27T15:34:18.603Z,102316.17
2018-12-27T15:37:13.182Z,102323.20
2018-12-27T15:39:48.722Z,102322.66
2018-12-27T15:42:22.652Z,102323.50
2018-12-27T15:45:57.563Z,102309.85
2018-12-27T15:48:32.561Z,102302.64
2018-12-27T15:51:08.169Z,102303.14
2018-12-27T15:53:55.081Z,102301.66
2018-12-27T15:57:10.337Z,102295.45
2018-12-27T15:59:47.331Z,102300.47
2018-12-27T16:02:31.947Z,102289.46
2018-12-27T16:05:22.392Z,102304.84
2018-12-27T16:07:57.805Z,102295.67
2018-12-27T16:10:43.034Z,102292.17
2018-12-27T16:13:18.893Z,102295.81
2018-12-27T16:15:53.246Z,102296.33
2018-12-27T16:18:26.955Z,102295.17
2018-12-27T16:21:01.740Z,102296.22
2018-12-27T16:23:34.724Z,102297.84
2018-12-27T16:26:31.166Z,102299.02
2018-12-27T16:29:24.928Z,102307.20
2018-12-27T16:32:27.453Z,102302.20
2018-12-27T16:35:04.086Z,102309.69
2018-12-27T16:40:31.261Z,102312.23
2018-12-27T16:43:03.313Z,102308.05
2018-12-27T16:46:02.845Z,102309.58
2018-12-27T16:48:44.159Z,102318.91
2018-12-27T16:51:23.270Z,102317.24
2018-12-27T16:54:00.888Z,102318.91
2018-12-27T16:56:39.094Z,102314.56
2018-12-27T16:59:13.757Z,102313.88
2018-12-27T17:02:04.998Z,102314.28
2018-12-27T17:04:43.043Z,102316.61
2018-12-27T17:07:33.548Z,102309.61
2018-12-27T17:10:12.490Z,102307.92
2018-12-27T17:12:46.240Z,102313.59
2018-12-27T17:15:19.782Z,102309.94
2018-12-27T17:17:52.316Z,102314.94
2018-12-27T17:20:30.054Z,102306.23
2018-12-27T17:23:17.670Z,102301.60
2018-12-27T17:25:50.925Z,102303.91
2018-12-27T17:28:24.866Z,102302.92
2018-12-27T17:31:00.483Z,102302.58
2018-12-27T17:55:15.589Z,102301.69
2018-12-27T18:05:22.245Z,102301.51
2018-12-27T18:09:01.641Z,102295.34
2018-12-27T18:18:57.775Z,102309.39
2018-12-27T18:21:53.613Z,102310.55
2018-12-27T18:24:43.634Z,102307.53
2018-12-27T18:34:15.975Z,102309.51
2018-12-27T18:44:15.003Z,102305.50
2018-12-27T18:46:51.514Z,102302.30
2018-12-27T18:49:27.727Z,102308.97
2018-12-27T18:52:22.845Z,102306.38
2018-12-27T18:55:19.794Z,102308.53
2018-12-27T18:58:00.280Z,102296.84
2018-12-27T19:00:45.269Z,102300.17
2018-12-27T19:03:19.617Z,102312.67
2018-12-27T19:06:04.582Z,102307.86
2018-12-27T19:08:39.103Z,102319.87
2018-12-27T19:11:46.391Z,102321.84
2018-12-27T19:14:20.022Z,102322.19
2018-12-27T19:24:37.276Z,102331.88
2018-12-27T19:29:03.747Z,102332.72
2018-12-27T19:33:52.109Z,102331.58
2018-12-27T19:47:03.555Z,102332.91
2018-12-27T19:49:39.452Z,102332.72
2018-12-27T20:03:19.573Z,102336.38
2018-12-27T20:05:54.789Z,102339.20
2018-12-27T20:08:29.634Z,102336.34
2018-12-27T20:11:12.522Z,102339.54
2018-12-27T20:13:43.194Z,102338.39
2018-12-27T20:16:46.741Z,102332.55
2018-12-27T20:19:52.572Z,102334.20
2018-12-27T20:22:28.064Z,102342.20
2018-12-27T20:25:59.726Z,102343.55
2018-12-27T20:28:40.742Z,102337.68
2018-12-27T20:31:18.174Z,102337.84
2018-12-27T20:33:55.549Z,102344.84
2018-12-27T20:36:32.328Z,102340.52
2018-12-27T20:39:09.397Z,102332.17
2018-12-27T20:41:45.935Z,102339.52
2018-12-27T20:44:24.185Z,102333.84
2018-12-27T20:47:03.027Z,102340.05
2018-12-27T20:52:49.928Z,102310.17
2018-12-27T20:59:01.636Z,102310.83
2018-12-27T21:01:42.407Z,102312.85
2018-12-27T21:15:28.250Z,102292.14
2018-12-27T21:18:10.081Z,102299.44
2018-12-27T21:21:02.191Z,102304.78
2018-12-27T21:23:52.890Z,102308.97
2018-12-27T21:26:31.773Z,102318.17
2018-12-27T21:29:06.590Z,102320.16
2018-12-27T21:31:46.400Z,102318.37
2018-12-27T21:34:21.500Z,102313.88
2018-12-27T21:37:08.862Z,102309.06
2018-12-27T21:40:06.722Z,102308.89
2018-12-27T21:43:10.394Z,102301.20
2018-12-27T21:46:12.151Z,102291.00
2018-12-27T21:49:08.869Z,102294.70
2018-12-27T21:57:13.705Z,102287.00
2018-12-27T21:59:52.083Z,102283.02
2018-12-27T22:02:29.363Z,102277.86
2018-12-27T22:33:07.216Z,102267.81
2018-12-27T22:36:19.891Z,102264.83
2018-12-27T23:47:11.143Z,102287.20
